INFORMACIÓN METAR y TAF
METAR FOR LIRA
ADDS - METARS form results

(0314 UTC 21 January 2022)
Data provider http://aviationweather.gov/metar/data/
 
METAR text: LIRA 210250Z 16003KT CAVOK 07/07 Q1017
Conditions at: LIRA (CIAMPINO(IT-AFB/, IT) observed 0250 UTC 21 January 2022
Temperature: 7.0°C (45°F)
Dewpoint: 7.0°C (45°F) [RH = 100%]
Pressure (altimeter): 30.03 inches Hg (1017.0 mb)
Winds: from the SSE (160 degrees) at 3 MPH (3 knots; 1.5 m/s)
Visibility: 6 or more miles (10+ km)
Ceiling: ceiling and visibility are OK
Clouds: unknown
Weather: no significant weather observed at this time

METAR text: LIRA 210220Z 12003KT CAVOK 08/07 Q1017
Conditions at: LIRA (CIAMPINO(IT-AFB/, IT) observed 0220 UTC 21 January 2022
Temperature: 8.0°C (46°F)
Dewpoint: 7.0°C (45°F) [RH = 93%]
Pressure (altimeter): 30.03 inches Hg (1017.0 mb)
Winds: from the ESE (120 degrees) at 3 MPH (3 knots; 1.5 m/s)
Visibility: 6 or more miles (10+ km)
Ceiling: ceiling and visibility are OK
Clouds: unknown
Weather: no significant weather observed at this time

Forecast for: LIRA (CIAMPINO(IT-AFB/, IT)
Text: TAF LIRA 202300Z 2100/2124 VRB05KT 9999 SCT030
Forecast period: 0000 UTC 21 January 2022 to 0000 UTC 22 January 2022
Forecast type: FROM: standard forecast or significant change
Winds: variable direction winds at 6 MPH (5 knots; 2.6 m/s)
Visibility: 6 or more miles (10+ km)
Ceiling: at least 12,000 feet AGL
Clouds: scattered clouds at 3000 feet AGL
Weather: no significant weather forecast for this period
Text: TEMPO 2100/2103 3000 RA
Forecast period: 0000 to 0300 UTC 21 January 2022
Forecast type: TEMPORARY: The following changes expected for less than half the time period
Visibility: 1.86 miles (2.99 km)
Ceiling: unknown
Clouds: missing
Weather: RA  (moderate rain)

 MAPA DE AEROPUERTO

 INFORMACIÓN DE PISTA
Pista 15 Longitud 7242 ft Ancho 154 ft
Elevación 341 ft Umbral desplazado 0 ft Rumbo de pista 153
Pista 33 Longitud 7242 ft Ancho 154 ft
Elevación 427 ft Umbral desplazado 0 ft Rumbo de pista 333

 FRECUANCIAS DEL AEROPUERTO
Tipo ARR Nombre ROMA ARR Frecuencia 119.2 MHZ
Tipo CLD Nombre CLNC DEL Frecuencia 119.4 MHZ
Tipo DIR Nombre ROMA DIREC Frecuencia 119.2 MHZ
Tipo GND Nombre GND Frecuencia 121.75 MHZ
Tipo TWR Nombre TWR Frecuencia 120.5 MHZ

 RADIO AYUDAS DEL AEROPUERTO
Tipo NDB Nombre Ciampino Frecuencia 412 KHZ
Tipo VOR-DME Nombre Roma Frecuencia 110800 KHZ




Powered by Virtual Airlines Manager